• Join FlightAware (Why Join?)
  • Login
  • US Flag 
01:28AM EST


 

Airport Tracker/Info


-or-


 

Live Flight TrackerFlight Track Log ✈ CES2375 ✈ 21-Jan-2014 ✈ ZLXY / XIY - ZLGM / GOQ

Flight Track Log - Related Links

Times and Time Zones

All times are in EST time to prevent confusion due to time zone crossing. See the CES2375 flight status page for this flight to view local times or setup timezone preferences in your user account.

Time Position Orientation Groundspeed Altitude Reporting Facility
EST Latitude Longitude Course Direction KTS MPH feet Rate Location/Type
06:00AM 34.7054 107.4324 284° West  Level Estimated
06:01AM 34.7263 107.3221 283° West  Level Estimated
06:02AM 34.7471 107.2117 283° West  Level Estimated
06:03AM 34.7678 107.1013 283° West  Level Estimated
06:04AM 34.7883 106.9908 283° West  Level Estimated
06:05AM 34.8088 106.8803 283° West  Level Estimated
06:06AM 34.8292 106.7697 283° West  Level Estimated
06:07AM 34.8495 106.6591 283° West  Level Estimated
06:08AM 34.8697 106.5484 283° West  Level Estimated
06:09AM 34.8898 106.4376 282° West  Level Estimated
06:10AM 34.9097 106.3268 282° West  Level Estimated
06:11AM 34.9296 106.2160 282° West  Level Estimated
06:12AM 34.9494 106.1051 282° West  Level Estimated
06:13AM 34.9691 105.9941 282° West  Level Estimated
06:14AM 34.9887 105.8831 282° West  Level Estimated
06:15AM 35.0081 105.7721 282° West  Level Estimated
06:16AM 35.0275 105.6609 282° West  Level Estimated
06:17AM 35.0468 105.5498 282° West  Level Estimated
06:18AM 35.0660 105.4386 282° West  Level Estimated
06:19AM 35.0850 105.3273 282° West  Level Estimated
06:20AM 35.1040 105.2160 282° West  Level Estimated
06:21AM 35.1229 105.1046 282° West  Level Estimated
06:22AM 35.1417 104.9931 282° West  Level Estimated
06:23AM 35.1603 104.8817 282° West  Level Estimated
06:24AM 35.1789 104.7701 282° West  Level Estimated
06:25AM 35.1973 104.6585 281° West  Level Estimated
06:26AM 35.2157 104.5469 281° West  Level Estimated
06:27AM 35.2340 104.4352 281° West  Level Estimated
06:28AM 35.2521 104.3235 281° West  Level Estimated
06:29AM 35.2702 104.2117 281° West  Level Estimated
06:30AM 35.2881 104.0999 281° West  Level Estimated
06:31AM 35.3060 103.9880 281° West  Level Estimated
06:32AM 35.3237 103.8761 281° West  Level Estimated
06:33AM 35.3413 103.7641 281° West  Level Estimated
06:34AM 35.3589 103.6521 281° West  Level Estimated
06:35AM 35.3763 103.5400 281° West  Level Estimated
06:36AM 35.3936 103.4279 281° West  Level Estimated
06:37AM 35.4109 103.3157 281° West  Level Estimated
06:38AM 35.4280 103.2035 281° West  Level Estimated
06:39AM 35.4450 103.0912 281° West  Level Estimated
06:40AM 35.4619 102.9789 281° West  Level Estimated
06:41AM 35.4787 102.8665 280° West  Level Estimated
06:42AM 35.4954 102.7541 280° West  Level Estimated
06:43AM 35.5120 102.6417 280° West  Level Estimated
06:44AM 35.5285 102.5292 280° West  Level Estimated
06:45AM 35.5449 102.4166 280° West  Level Estimated
06:46AM 35.5612 102.3040 280° West  Level Estimated
06:47AM 35.5774 102.1914 280° West  Level Estimated
06:48AM 35.5935 102.0787 280° West  Level Estimated
06:49AM 35.6095 101.9660 280° West  Level Estimated
06:50AM 35.6253 101.8532 280° West  Level Estimated
06:51AM 35.6411 101.7403 280° West  Level Estimated
06:52AM 35.6567 101.6275 280° West  Level Estimated
06:53AM 35.6723 101.5146 280° West  Level Estimated
06:54AM 35.6877 101.4016 280° West  Level Estimated
06:55AM 35.7031 101.2886 280° West  Level Estimated
06:56AM 35.7183 101.1756 279° West  Level Estimated
06:57AM 35.7335 101.0625 279° West  Level Estimated
06:58AM 35.7485 100.9494 279° West  Level Estimated
06:59AM 35.7634 100.8362 279° West  Level Estimated
07:00AM 35.7782 100.7230 279° West  Level Estimated
07:01AM 35.7929 100.6097 279° West  Level Estimated
07:02AM 35.8075 100.4964 279° West  Level Estimated
07:03AM 35.8220 100.3831 279° West  Level Estimated
07:04AM 35.8364 100.2697 279° West  Level Estimated
07:05AM 35.8507 100.1563 279° West  Level Estimated
07:06AM 35.8648 100.0428 279° West  Level Estimated
07:07AM 35.8789 99.9293 279° West  Level Estimated
07:08AM 35.8929 99.8158 279° West  Level Estimated
07:09AM 35.9067 99.7022 279° West  Level Estimated
07:10AM 35.9205 99.5886 279° West  Level Estimated
07:11AM 35.9341 99.4749 278° West  Level Estimated
07:12AM 35.9476 99.3612 278° West  Level Estimated
07:13AM 35.9611 99.2475 278° West  Level Estimated
07:14AM 35.9744 99.1337 278° West  Level Estimated
07:15AM 35.9876 99.0199 278° West  Level Estimated
07:16AM 36.0007 98.9061 278° West  Level Estimated
07:17AM 36.0137 98.7922 278° West  Level Estimated
07:18AM 36.0266 98.6782 278° West  Level Estimated
07:19AM 36.0394 98.5643 278° West  Level Estimated
07:20AM 36.0520 98.4503 278° West  Level Estimated
07:21AM 36.0646 98.3362 278° West  Level Estimated
07:22AM 36.0771 98.2222 278° West  Level Estimated
07:23AM 36.0894 98.1081 278° West  Level Estimated
07:24AM 36.1017 97.9939 278° West  Level Estimated
07:25AM 36.1138 97.8797 278° West  Level Estimated
07:26AM 36.1258 97.7655 277° West  Level Estimated
07:27AM 36.1377 97.6513 277° West  Level Estimated
07:28AM 36.1495 97.5370 277° West  Level Estimated
07:29AM 36.1612 97.4227 277° West  Level Estimated
07:30AM 36.1728 97.3083 277° West  Level Estimated
07:31AM 36.1843 97.1939 277° West  Level Estimated
07:32AM 36.1957 97.0795 277° West  Level Estimated
07:33AM 36.2069 96.9650 277° West  Level Estimated
07:34AM 36.2181 96.8505 277° West  Level Estimated
07:35AM 36.2291 96.7360 277° West  Level Estimated
07:36AM 36.2401 96.6215 277° West  Level Estimated
07:37AM 36.2509 96.5069 277° West  Level Estimated
07:38AM 36.2616 96.3923 277° West  Level Estimated
07:39AM 36.2722 96.2776 277° West  Level Estimated
07:40AM 36.2827 96.1630 277° West  Level Estimated
07:41AM 36.2931 96.0482 276° West  Level Estimated
07:42AM 36.3034 95.9335 276° West  Level Estimated
07:43AM 36.3136 95.8187 276° West  Level Estimated
07:44AM 36.3236 95.7039 276° West  Level Estimated
07:45AM 36.3336 95.5891 276° West  Level Estimated
07:46AM 36.3434 95.4743 276° West  Level Estimated
07:47AM 36.3531 95.3594 276° West  Level Estimated
07:48AM 36.3628 95.2445 276° West  Level Estimated
07:49AM 36.3730 95.1205 276° West  Level Estimated
07:50AM 36.3831 94.9965 276° West  Level Estimated
07:51AM 36.3931 94.8725 276° West  Level Estimated
07:52AM 36.4000 94.7861 276° West  Level Estimated
07:53AM 36.4000 94.7861 90° East  Level Estimated
07:54AM 36.4000 94.7861 90° East  Level Estimated
07:55AM 36.4000 94.7861 90° East  Level Estimated
07:56AM 36.4000 94.7861 90° East  Level Estimated
07:57AM 36.4000 94.7861 90° East  Level Estimated
07:58AM 36.4000 94.7861 90° East  Level Estimated
07:59AM 36.4000 94.7861 90° East  Level Estimated